createdAt,value
2023-05-22T00:00:30.676Z,102065.09
2023-05-22T00:02:32.648Z,102062.59
2023-05-22T00:04:34.880Z,102067.69
2023-05-22T00:06:36.558Z,102074.25
2023-05-22T00:08:38.414Z,102076.59
2023-05-22T00:10:40.495Z,102077.63
2023-05-22T00:12:42.583Z,102080.81
2023-05-22T00:14:44.579Z,102084.84
2023-05-22T00:16:47.980Z,102077.88
2023-05-22T00:18:49.854Z,102076.22
2023-05-22T00:20:51.815Z,102077.47
2023-05-22T00:22:53.424Z,102072.41
2023-05-22T00:24:54.996Z,102077.69
2023-05-22T00:26:57.073Z,102074.53
2023-05-22T00:28:58.920Z,102067.56
2023-05-22T00:31:03.369Z,102073.44
2023-05-22T00:33:07.786Z,102076.44
2023-05-22T00:35:10.206Z,102074.09
2023-05-22T00:37:12.288Z,102077.28
2023-05-22T00:39:13.968Z,102077.50
2023-05-22T00:41:15.873Z,102081.50
2023-05-22T00:43:17.644Z,102079.00
2023-05-22T00:45:19.466Z,102076.44
2023-05-22T00:47:21.041Z,102079.44
2023-05-22T00:49:24.109Z,102080.47
2023-05-22T00:51:26.011Z,102079.84
2023-05-22T00:53:29.090Z,102080.91
2023-05-22T00:55:30.827Z,102073.06
2023-05-22T00:57:33.399Z,102074.16
2023-05-22T00:59:36.077Z,102077.34
2023-05-22T01:01:38.499Z,102072.06
2023-05-22T01:03:41.829Z,102076.91
2023-05-22T01:05:45.117Z,102070.59
2023-05-22T01:07:49.831Z,102077.13
2023-05-22T01:09:51.621Z,102071.00
2023-05-22T01:12:01.301Z,102070.16
2023-05-22T01:14:13.321Z,102073.13
2023-05-22T01:16:24.617Z,102073.97
2023-05-22T01:18:34.952Z,102074.16
2023-05-22T01:20:41.382Z,102075.25
2023-05-22T01:23:19.206Z,102084.31
2023-05-22T01:25:40.939Z,102080.94
2023-05-22T01:28:12.095Z,102075.88
2023-05-22T01:30:41.700Z,102074.38
2023-05-22T01:32:46.900Z,102075.03
2023-05-22T01:34:53.640Z,102079.88
2023-05-22T01:36:57.603Z,102075.69
2023-05-22T01:39:00.190Z,102067.63
2023-05-22T01:41:02.060Z,102075.03
2023-05-22T01:43:03.779Z,102069.78
2023-05-22T01:45:08.696Z,102077.34
2023-05-22T01:47:11.834Z,102070.41
2023-05-22T01:49:13.758Z,102080.75
2023-05-22T01:51:23.052Z,102071.03
2023-05-22T01:53:30.896Z,102083.09
2023-05-22T01:55:42.790Z,102078.63
2023-05-22T01:57:52.930Z,102080.72
2023-05-22T02:00:02.866Z,102068.72
2023-05-22T02:02:07.110Z,102070.84
2023-05-22T02:04:10.681Z,102068.94
2023-05-22T02:06:14.829Z,102074.44
2023-05-22T02:08:17.471Z,102065.53
2023-05-22T02:10:21.763Z,102080.31
2023-05-22T02:12:24.543Z,102070.41
2023-05-22T02:14:26.502Z,102077.16
2023-05-22T02:16:29.390Z,102072.94
2023-05-22T02:18:30.968Z,102071.47
2023-05-22T02:20:34.005Z,102064.47
2023-05-22T02:22:36.101Z,102068.31
2023-05-22T02:24:37.719Z,102065.75
2023-05-22T02:26:39.370Z,102061.31
2023-05-22T02:28:40.955Z,102061.31
2023-05-22T02:30:43.014Z,102059.84
2023-05-22T02:32:44.938Z,102056.47
2023-05-22T02:34:46.534Z,102066.59
2023-05-22T02:36:49.685Z,102055.81
2023-05-22T02:38:51.232Z,102056.88
2023-05-22T02:40:52.888Z,102067.22
2023-05-22T02:42:55.044Z,102057.53
2023-05-22T02:44:56.893Z,102055.16
2023-05-22T02:46:59.051Z,102059.16
2023-05-22T02:49:01.015Z,102060.44
2023-05-22T02:51:03.009Z,102056.22
2023-05-22T02:53:08.819Z,102051.13
2023-05-22T02:55:10.803Z,102060.44
2023-05-22T02:57:12.491Z,102053.44
2023-05-22T02:59:14.298Z,102052.59
2023-05-22T03:01:16.084Z,102056.41
2023-05-22T03:03:17.974Z,102046.50
2023-05-22T03:05:21.341Z,102051.56
2023-05-22T03:07:23.187Z,102053.63
2023-05-22T03:09:26.772Z,102048.56
2023-05-22T03:11:28.462Z,102053.44
2023-05-22T03:13:31.371Z,102055.53
2023-05-22T03:15:33.539Z,102048.56
2023-05-22T03:17:36.805Z,102054.47
2023-05-22T03:19:38.676Z,102050.03
2023-05-22T03:21:41.373Z,102052.16
2023-05-22T03:23:44.685Z,102046.00
2023-05-22T03:25:47.746Z,102045.16
2023-05-22T03:27:49.433Z,102048.97
2023-05-22T03:29:51.785Z,102044.53
2023-05-22T03:31:54.655Z,102052.09
2023-05-22T03:33:56.381Z,102043.06
2023-05-22T03:35:58.013Z,102049.59
2023-05-22T03:37:59.896Z,102052.53
2023-05-22T03:40:01.773Z,102051.69
2023-05-22T03:42:06.017Z,102056.34
2023-05-22T03:44:08.017Z,102060.97
2023-05-22T03:46:10.035Z,102066.47
2023-05-22T03:48:11.938Z,102058.84
2023-05-22T03:50:13.671Z,102063.72
2023-05-22T03:52:15.778Z,102056.97
2023-05-22T03:54:17.728Z,102060.56
2023-05-22T03:56:19.359Z,102069.66
2023-05-22T03:58:22.809Z,102057.63
2023-05-22T04:02:26.486Z,102053.44
2023-05-22T04:04:28.536Z,102057.84
2023-05-22T04:06:30.473Z,102064.81
2023-05-22T04:08:32.077Z,102061.00
2023-05-22T04:10:35.380Z,102058.91
2023-05-22T04:12:37.178Z,102054.91
2023-05-22T04:14:40.308Z,102057.22
2023-05-22T04:16:41.941Z,102051.56
2023-05-22T04:18:43.687Z,102050.09
2023-05-22T04:20:45.335Z,102056.84
2023-05-22T04:22:47.026Z,102049.25
2023-05-22T04:24:49.413Z,102048.00
2023-05-22T04:26:52.636Z,102051.16
2023-05-22T04:28:54.496Z,102042.50
2023-05-22T04:30:57.825Z,102048.44
2023-05-22T04:32:59.710Z,102043.38
2023-05-22T04:35:01.899Z,102041.91
2023-05-22T04:37:03.757Z,102040.44
2023-05-22T04:39:05.355Z,102045.28
2023-05-22T04:41:07.644Z,102045.69
2023-05-22T04:43:09.237Z,102045.06
2023-05-22T04:45:11.811Z,102044.63
2023-05-22T04:47:14.783Z,102045.06
2023-05-22T04:49:16.421Z,102046.31
2023-05-22T04:51:18.492Z,102044.84
2023-05-22T04:53:20.397Z,102046.13
2023-05-22T04:55:22.083Z,102046.53
2023-05-22T04:57:23.773Z,102046.75
2023-05-22T04:59:25.391Z,102045.88
2023-05-22T05:01:27.111Z,102043.34
2023-05-22T05:03:30.333Z,102040.59
2023-05-22T05:05:32.248Z,102041.63
2023-05-22T05:07:37.679Z,102044.97
2023-05-22T05:09:39.499Z,102044.94
2023-05-22T05:11:41.045Z,102037.75
2023-05-22T05:13:42.900Z,102040.28
2023-05-22T05:15:44.828Z,102041.97
2023-05-22T05:17:46.756Z,102044.69
2023-05-22T05:19:49.959Z,102043.59
2023-05-22T05:21:51.680Z,102045.25
2023-05-22T05:23:53.302Z,102042.25
2023-05-22T05:25:55.229Z,102036.72
2023-05-22T05:27:57.139Z,102041.53
2023-05-22T05:29:59.726Z,102027.50
2023-05-22T05:32:01.343Z,102029.75
2023-05-22T05:34:02.993Z,102032.84
2023-05-22T05:36:06.729Z,102028.78
2023-05-22T05:38:08.399Z,102032.94
2023-05-22T05:40:10.716Z,102025.06
2023-05-22T05:42:12.391Z,102030.06
2023-05-22T05:44:14.212Z,102031.47
2023-05-22T05:46:16.631Z,102037.06
2023-05-22T05:48:18.476Z,102031.03
2023-05-22T05:50:20.292Z,102034.09
2023-05-22T05:52:23.269Z,102036.34
2023-05-22T05:54:25.160Z,102036.66
2023-05-22T05:56:26.832Z,102039.72
2023-05-22T05:58:28.867Z,102038.97
2023-05-22T06:00:31.001Z,102032.91
2023-05-22T06:02:32.990Z,102024.94
2023-05-22T06:04:34.790Z,102022.69
2023-05-22T06:06:36.889Z,102025.75
2023-05-22T06:08:40.186Z,102029.38
2023-05-22T06:10:42.006Z,102022.25
2023-05-22T06:12:44.066Z,102022.25
2023-05-22T06:14:45.731Z,102023.41
2023-05-22T06:16:47.634Z,102018.16
2023-05-22T06:18:49.617Z,102022.84
2023-05-22T06:20:52.830Z,102014.59
2023-05-22T06:22:54.428Z,102019.03
2023-05-22T06:24:57.402Z,102017.13
2023-05-22T06:26:59.151Z,102012.44
2023-05-22T06:29:00.704Z,102015.78
2023-05-22T06:31:02.563Z,102012.78
2023-05-22T06:33:04.312Z,102017.78
2023-05-22T06:35:06.583Z,102021.13
2023-05-22T06:37:08.716Z,102013.38
2023-05-22T06:39:10.297Z,102017.53
2023-05-22T06:41:13.611Z,102013.88
2023-05-22T06:43:17.452Z,102012.78
2023-05-22T06:45:20.043Z,102014.03
2023-05-22T06:47:21.800Z,102015.91
2023-05-22T06:49:23.849Z,102021.38
2023-05-22T06:51:26.240Z,102011.31
2023-05-22T06:53:28.210Z,102012.31
2023-05-22T06:55:30.163Z,102014.47
2023-05-22T06:57:33.428Z,102025.25
2023-05-22T06:59:35.296Z,102019.63
2023-05-22T07:01:37.053Z,102019.53
2023-05-22T07:03:38.644Z,102012.75
2023-05-22T07:05:40.462Z,102018.41
2023-05-22T07:07:42.154Z,102015.81
2023-05-22T07:09:43.990Z,102018.69
2023-05-22T07:11:45.633Z,102016.91
2023-05-22T07:13:48.593Z,102015.09
2023-05-22T07:15:50.327Z,102021.03
2023-05-22T07:17:51.950Z,102017.19
2023-05-22T07:19:54.016Z,102007.00
2023-05-22T07:21:55.802Z,102006.53
2023-05-22T07:23:57.747Z,102004.63
2023-05-22T07:25:59.606Z,102008.03
2023-05-22T07:28:01.769Z,101998.41
2023-05-22T07:30:06.310Z,101999.84
2023-05-22T07:32:08.151Z,101999.41
2023-05-22T07:34:10.118Z,102002.25
2023-05-22T07:36:12.188Z,102006.50
2023-05-22T07:38:13.806Z,102002.97
2023-05-22T07:40:15.686Z,101996.91
2023-05-22T07:42:17.742Z,101997.78
2023-05-22T07:44:19.560Z,101997.84
2023-05-22T07:46:22.768Z,101993.72
2023-05-22T07:48:24.448Z,101996.59
2023-05-22T07:50:26.239Z,101991.38
2023-05-22T07:52:27.919Z,101991.41
2023-05-22T07:54:29.963Z,101992.88
2023-05-22T07:56:31.603Z,101988.72
2023-05-22T07:58:33.488Z,101995.16
2023-05-22T08:00:35.142Z,101996.28
2023-05-22T08:02:38.363Z,101991.06
2023-05-22T08:04:42.142Z,102003.34
2023-05-22T08:06:44.392Z,101991.94
2023-05-22T08:08:46.291Z,101992.50
2023-05-22T08:11:03.033Z,101995.84
2023-05-22T08:13:07.059Z,101992.53
2023-05-22T08:15:09.648Z,101997.81
2023-05-22T08:17:13.698Z,101997.84
2023-05-22T08:19:16.916Z,101990.91
2023-05-22T08:21:18.926Z,101986.44
2023-05-22T08:23:20.576Z,101991.22
2023-05-22T08:25:23.085Z,101987.56
2023-05-22T08:27:24.986Z,101987.56
2023-05-22T08:29:26.639Z,101990.88
2023-05-22T08:31:28.540Z,101983.91
2023-05-22T08:33:30.379Z,101989.75
2023-05-22T08:35:33.468Z,101989.19
2023-05-22T08:37:35.184Z,101988.03
2023-05-22T08:39:36.790Z,101990.84
2023-05-22T08:41:38.490Z,101988.03
2023-05-22T08:43:41.884Z,101984.97
2023-05-22T08:45:43.952Z,101985.75
2023-05-22T08:47:52.275Z,101986.56
2023-05-22T08:49:54.540Z,101976.75
2023-05-22T08:52:05.885Z,101982.28
2023-05-22T08:54:08.516Z,101976.41
2023-05-22T08:56:10.930Z,101971.34
2023-05-22T08:58:13.086Z,101969.63
2023-05-22T09:00:16.715Z,101964.84
2023-05-22T09:02:19.542Z,101951.97
2023-05-22T09:04:21.754Z,101961.72
2023-05-22T09:06:23.580Z,101965.00
2023-05-22T09:08:28.207Z,101959.09
2023-05-22T09:10:30.123Z,101954.84
2023-05-22T09:12:33.697Z,101953.38
2023-05-22T09:14:39.405Z,101949.41
2023-05-22T09:16:46.060Z,101945.16
2023-05-22T09:18:47.701Z,101942.63
2023-05-22T09:20:50.739Z,101937.28
2023-05-22T09:22:52.615Z,101937.75
2023-05-22T09:24:56.541Z,101925.09
2023-05-22T09:27:03.064Z,101928.09
2023-05-22T09:29:05.705Z,101921.31
2023-05-22T09:31:07.764Z,101927.09
2023-05-22T09:33:12.636Z,101921.38
2023-05-22T09:35:14.502Z,101911.25
2023-05-22T09:37:17.477Z,101917.03
2023-05-22T09:39:19.472Z,101915.75
2023-05-22T09:41:22.559Z,101916.44
2023-05-22T09:43:24.829Z,101912.38
2023-05-22T09:45:28.157Z,101913.91
2023-05-22T09:47:30.115Z,101912.94
2023-05-22T09:49:35.776Z,101913.31
2023-05-22T09:51:40.561Z,101912.03
2023-05-22T09:53:44.159Z,101906.53
2023-05-22T09:55:48.404Z,101904.50
2023-05-22T09:57:52.524Z,101904.44
2023-05-22T09:59:55.410Z,101895.41
2023-05-22T10:01:58.383Z,101893.66
2023-05-22T10:04:01.873Z,101899.72
2023-05-22T10:06:05.917Z,101898.47
2023-05-22T10:08:10.993Z,101891.63
2023-05-22T10:10:15.402Z,101891.53
2023-05-22T10:12:21.545Z,101889.16
2023-05-22T10:14:25.812Z,101890.75
2023-05-22T10:16:28.532Z,101880.56
2023-05-22T10:18:30.633Z,101881.59
2023-05-22T10:20:32.730Z,101886.81
2023-05-22T10:22:36.894Z,101887.28
2023-05-22T10:24:40.176Z,101880.91
2023-05-22T10:26:44.282Z,101878.00
2023-05-22T10:28:51.539Z,101882.69
2023-05-22T10:31:01.295Z,101875.81
2023-05-22T10:33:07.926Z,101868.22
2023-05-22T10:35:18.472Z,101868.78
2023-05-22T10:37:35.605Z,101870.41
